Etusivu
METAR-TAF:

METAR-TAF

Lentoasemat :

Red Deer, Alberta, Kanada

Leveyspiiri: 52-11N, Pituuspiiri: 113-54W, korkeus merenpinnasta: 905 m

Tämänhetkinen sää

Tämä raportti tehtiin 1 tunti ja 0 minuuttia sitten, kello 07.00 UTC
Tuuli 4 kn lounaasta
Lämpötila 6°C
Kosteus 81%
Ilmanpaine 1019 hPa
Näkyvyys: 24.1 km
Muutamia pilviä 8000 ft:n korkeudessa

METAR: CYQF 260700Z 22004KT 15SM FEW080 06/03 A3010 RMK AC1 SLP214

Aika: 02:00 (08:00 UTC)

Sääennuste

Tämä raportti tehtiin 2 tuntia ja 22 minuuttia sitten, kello 05.38 UTC
Ennuste voimassa 26. päivästä klo 06 UTC - 26. päivään klo 18 UTC
Tuuli 3 kn eri suunnista
Näkyvyys: 10 km
Muutamia pilviä 9000 ft:n korkeudessa

TAF: CYQF 260538Z 2606/2618 VRB03KT P6SM FEW090 RMK NXT FCST BY 261200Z

Säähavainnot ja -ennusteet yli 4000 lentoasemalta (METAR- ja TAF-raportit).

Käytössä olevat sääasemat on merkitty karttaan keltaisilla ja punaisilla pisteillä.

Aseta hiiri pisteen päälle nähdäksesi sääaseman nimen.

Klikkaa sitten nähdäksesi säähavainnot ja -ennusteet.

Kartan vaihtaminen: klikkaa mustalla rastilla varustettuja vihreitä pisteitä, niin voit zoomata sisään; viivalla varustettua vihreää pistettä, niin voit zoomata ulos tai vihreitä nuolia, niin pääset viereisille kartoille.


METAR-TAF: